...

 METAR AND TAF INFORMATION
METAR FOR UNKL
ADDS - METARS form results

(2315 UTC 09 May 2021)
Data provider http://aviationweather.gov/metar/data/
 
METAR text: UNKL 092300Z 29004MPS CAVOK 05/03 Q1019 R29/CLRD65 NOSIG RMK QFE738
Conditions at: UNKL (KRASNOYARSK , RU) observed 2300 UTC 09 May 2021
Temperature: 5.0°C (41°F)
Dewpoint: 3.0°C (37°F) [RH = 87%]
Pressure (altimeter): 30.09 inches Hg (1019.0 mb)
Winds: from the WNW (290 degrees) at 9 MPH (8 knots; 4.1 m/s)
Visibility: 6 or more miles (10+ km)
Ceiling: ceiling and visibility are OK
Clouds: unknown
Weather: no significant weather observed at this time

METAR text: UNKL 092230Z 30005MPS 9999 FEW049 05/02 Q1019 R29/CLRD65 NOSIG RMK QFE738
Conditions at: UNKL (KRASNOYARSK , RU) observed 2230 UTC 09 May 2021
Temperature: 5.0°C (41°F)
Dewpoint: 2.0°C (36°F) [RH = 81%]
Pressure (altimeter): 30.09 inches Hg (1019.0 mb)
Winds: from the WNW (300 degrees) at 12 MPH (10 knots; 5.1 m/s)
Visibility: 6 or more miles (10+ km)
Ceiling: at least 12,000 feet AGL
Clouds: few clouds at 4900 feet AGL
Weather: no significant weather observed at this time

Forecast for: UNKL (KRASNOYARSK , RU)
Text: TAF UNKL 091950Z 0921/1021 29003G08MPS 9999 SCT030CB
Forecast period: 2100 UTC 09 May 2021 to 0300 UTC 10 May 2021
Forecast type: FROM: standard forecast or significant change
Winds: from the WNW (290 degrees) at 7 MPH (6 knots; 3.1 m/s)
gusting to 18 MPH (16 knots; 8.2 m/s)
Visibility: 6 or more miles (10+ km)
Ceiling: at least 12,000 feet AGL
Clouds: scattered clouds at 3000 feet AGL
Weather: no significant weather forecast for this period
Text: TEMPO 0921/1003 6000 -SHRA
Forecast period: 2100 UTC 09 May 2021 to 0300 UTC 10 May 2021
Forecast type: TEMPORARY: The following changes expected for less than half the time period
Visibility: 4 miles (6 km)
Ceiling: unknown
Clouds: missing
Weather: -SHRA  (light rain showers)
Text: FM100300 35003G10MPS 6000 -SHRA BKN016CB
Forecast period: 0300 to 2100 UTC 10 May 2021
Forecast type: FROM: standard forecast or significant change
Winds: from the N (350 degrees) at 7 MPH (6 knots; 3.1 m/s)
gusting to 22 MPH (19 knots; 9.8 m/s)
Visibility: 4 miles (6 km)
Ceiling: 1600 feet AGL
Clouds: broken clouds at 1600 feet AGL
Weather: -SHRA  (light rain showers)

 AIRPORT MAP

 RUNWAY INFORMATION
Runway 11 Runway length 12150 ft Runway width 197 ft
Runway elevation 942 ft Runway displaced threshold 0 ft Runway heading 113
Runway 29 Runway length 12150 ft Runway width 197 ft
Runway elevation 942 ft Runway displaced threshold 0 ft Runway heading 293

 AIRPORT FREQUENCIES
Type APP Name KRASNOYARS Frequency 127.7 MHZ
Type TWR Name KRASNOYARS Frequency 118.3 MHZ
Type TWR Name KRASNOYARS Frequency 121.9 MHZ

 AIRPORT NEAR NAVIGATION AIDS
Type NDB Name Krasnoyarsk Frequency 334 KHZ
Type NDB Name Staritsa Frequency 430 KHZ
Type NDB Name Krasnoyarsk Frequency 334 KHZ
Type VOR-DME Name Krasnoyarsk Frequency 113200 KHZ